sensor_id;sensor_type;location;lat;lon;timestamp;temperature;humidity
7254;DHT22;4060;49.186;9.226;2022-12-04T00:00:44;7.50;64.00
7254;DHT22;4060;49.186;9.226;2022-12-04T00:03:13;7.50;64.00
7254;DHT22;4060;49.186;9.226;2022-12-04T00:05:46;7.50;64.00
7254;DHT22;4060;49.186;9.226;2022-12-04T00:08:22;7.50;63.90
7254;DHT22;4060;49.186;9.226;2022-12-04T00:10:57;7.50;64.10
7254;DHT22;4060;49.186;9.226;2022-12-04T00:13:27;7.50;64.10
7254;DHT22;4060;49.186;9.226;2022-12-04T00:15:56;7.50;64.10
7254;DHT22;4060;49.186;9.226;2022-12-04T00:18:26;7.50;64.00
7254;DHT22;4060;49.186;9.226;2022-12-04T00:21:05;7.50;64.10
7254;DHT22;4060;49.186;9.226;2022-12-04T00:23:48;7.60;64.30
7254;DHT22;4060;49.186;9.226;2022-12-04T00:26:29;7.50;64.10
7254;DHT22;4060;49.186;9.226;2022-12-04T00:29:04;7.90;64.60
7254;DHT22;4060;49.186;9.226;2022-12-04T00:31:35;7.50;64.10
7254;DHT22;4060;49.186;9.226;2022-12-04T00:34:10;7.50;64.10
7254;DHT22;4060;49.186;9.226;2022-12-04T00:36:40;7.50;64.20
7254;DHT22;4060;49.186;9.226;2022-12-04T00:39:19;7.50;64.10
7254;DHT22;4060;49.186;9.226;2022-12-04T00:41:52;7.50;64.10
7254;DHT22;4060;49.186;9.226;2022-12-04T00:44:22;7.50;64.10
7254;DHT22;4060;49.186;9.226;2022-12-04T00:46:51;7.50;64.10
7254;DHT22;4060;49.186;9.226;2022-12-04T00:49:21;7.50;64.20
7254;DHT22;4060;49.186;9.226;2022-12-04T00:51:50;7.50;64.90
7254;DHT22;4060;49.186;9.226;2022-12-04T00:54:20;7.50;64.20
7254;DHT22;4060;49.186;9.226;2022-12-04T00:56:55;7.50;64.10
7254;DHT22;4060;49.186;9.226;2022-12-04T00:59:25;7.50;64.20
7254;DHT22;4060;49.186;9.226;2022-12-04T01:01:55;7.50;64.20
7254;DHT22;4060;49.186;9.226;2022-12-04T01:04:24;7.50;64.20
7254;DHT22;4060;49.186;9.226;2022-12-04T01:06:54;7.50;64.20
7254;DHT22;4060;49.186;9.226;2022-12-04T01:09:25;7.50;64.10
7254;DHT22;4060;49.186;9.226;2022-12-04T01:12:01;7.50;64.30
7254;DHT22;4060;49.186;9.226;2022-12-04T01:14:32;7.50;64.30
7254;DHT22;4060;49.186;9.226;2022-12-04T01:17:02;7.50;64.20
7254;DHT22;4060;49.186;9.226;2022-12-04T01:19:32;7.40;64.10
7254;DHT22;4060;49.186;9.226;2022-12-04T01:22:02;7.50;64.30
7254;DHT22;4060;49.186;9.226;2022-12-04T01:24:44;7.50;64.20
7254;DHT22;4060;49.186;9.226;2022-12-04T01:27:17;7.50;64.30
7254;DHT22;4060;49.186;9.226;2022-12-04T01:29:48;7.50;64.20
7254;DHT22;4060;49.186;9.226;2022-12-04T01:32:34;7.50;64.40
7254;DHT22;4060;49.186;9.226;2022-12-04T01:35:06;7.40;64.30
7254;DHT22;4060;49.186;9.226;2022-12-04T01:37:37;7.40;64.20
7254;DHT22;4060;49.186;9.226;2022-12-04T01:40:14;7.40;64.30
7254;DHT22;4060;49.186;9.226;2022-12-04T01:42:47;7.50;64.30
7254;DHT22;4060;49.186;9.226;2022-12-04T01:45:44;7.40;64.30
7254;DHT22;4060;49.186;9.226;2022-12-04T01:48:19;7.50;64.40
7254;DHT22;4060;49.186;9.226;2022-12-04T01:50:56;7.50;64.40
7254;DHT22;4060;49.186;9.226;2022-12-04T01:53:39;7.40;64.40
7254;DHT22;4060;49.186;9.226;2022-12-04T01:56:10;7.40;64.30
7254;DHT22;4060;49.186;9.226;2022-12-04T01:58:43;7.40;64.30
7254;DHT22;4060;49.186;9.226;2022-12-04T02:01:15;7.40;64.30
7254;DHT22;4060;49.186;9.226;2022-12-04T02:03:47;7.40;64.20
7254;DHT22;4060;49.186;9.226;2022-12-04T02:06:19;7.40;64.30
7254;DHT22;4060;49.186;9.226;2022-12-04T02:08:49;7.40;64.20
7254;DHT22;4060;49.186;9.226;2022-12-04T02:11:26;7.40;64.20
7254;DHT22;4060;49.186;9.226;2022-12-04T02:14:09;7.40;64.40
7254;DHT22;4060;49.186;9.226;2022-12-04T02:16:44;7.40;64.40
7254;DHT22;4060;49.186;9.226;2022-12-04T02:19:35;7.40;64.30
7254;DHT22;4060;49.186;9.226;2022-12-04T02:22:18;7.50;64.40
7254;DHT22;4060;49.186;9.226;2022-12-04T02:25:00;7.40;64.30
7254;DHT22;4060;49.186;9.226;2022-12-04T02:27:54;7.40;64.30
7254;DHT22;4060;49.186;9.226;2022-12-04T02:30:27;7.40;64.40
7254;DHT22;4060;49.186;9.226;2022-12-04T02:33:02;7.40;64.40
7254;DHT22;4060;49.186;9.226;2022-12-04T02:35:35;7.40;64.40
7254;DHT22;4060;49.186;9.226;2022-12-04T02:38:16;7.40;64.40
7254;DHT22;4060;49.186;9.226;2022-12-04T02:40:53;7.40;64.50
7254;DHT22;4060;49.186;9.226;2022-12-04T02:43:29;7.40;64.50
7254;DHT22;4060;49.186;9.226;2022-12-04T02:46:04;7.50;64.60
7254;DHT22;4060;49.186;9.226;2022-12-04T02:48:38;7.40;64.40
7254;DHT22;4060;49.186;9.226;2022-12-04T02:51:12;7.40;64.50
7254;DHT22;4060;49.186;9.226;2022-12-04T02:53:48;7.40;64.40
7254;DHT22;4060;49.186;9.226;2022-12-04T02:56:21;7.40;64.50
7254;DHT22;4060;49.186;9.226;2022-12-04T02:58:57;7.40;64.50
7254;DHT22;4060;49.186;9.226;2022-12-04T03:01:30;7.40;64.50
7254;DHT22;4060;49.186;9.226;2022-12-04T03:04:07;7.40;64.50
7254;DHT22;4060;49.186;9.226;2022-12-04T03:06:40;7.40;65.10
7254;DHT22;4060;49.186;9.226;2022-12-04T03:09:13;7.40;64.50
7254;DHT22;4060;49.186;9.226;2022-12-04T03:11:49;7.40;64.60
7254;DHT22;4060;49.186;9.226;2022-12-04T03:14:26;7.50;64.60
7254;DHT22;4060;49.186;9.226;2022-12-04T03:17:00;7.40;64.50
7254;DHT22;4060;49.186;9.226;2022-12-04T03:19:35;7.40;64.50
7254;DHT22;4060;49.186;9.226;2022-12-04T03:22:10;7.40;64.60
7254;DHT22;4060;49.186;9.226;2022-12-04T03:24:47;7.40;64.60
7254;DHT22;4060;49.186;9.226;2022-12-04T03:27:21;7.40;65.30
7254;DHT22;4060;49.186;9.226;2022-12-04T03:30:00;7.40;64.60
7254;DHT22;4060;49.186;9.226;2022-12-04T03:32:42;7.40;64.60
7254;DHT22;4060;49.186;9.226;2022-12-04T03:35:18;7.50;65.40
7254;DHT22;4060;49.186;9.226;2022-12-04T03:37:53;7.40;64.60
7254;DHT22;4060;49.186;9.226;2022-12-04T03:40:29;7.40;64.60
7254;DHT22;4060;49.186;9.226;2022-12-04T03:43:07;7.40;64.60
7254;DHT22;4060;49.186;9.226;2022-12-04T03:45:44;7.40;64.60
7254;DHT22;4060;49.186;9.226;2022-12-04T03:48:20;7.40;64.60
7254;DHT22;4060;49.186;9.226;2022-12-04T03:50:59;7.40;64.60
7254;DHT22;4060;49.186;9.226;2022-12-04T03:53:33;7.40;64.60
7254;DHT22;4060;49.186;9.226;2022-12-04T03:56:08;7.40;64.70
7254;DHT22;4060;49.186;9.226;2022-12-04T03:58:45;7.40;64.60
7254;DHT22;4060;49.186;9.226;2022-12-04T04:01:21;7.50;64.80
7254;DHT22;4060;49.186;9.226;2022-12-04T04:03:53;7.40;64.70
7254;DHT22;4060;49.186;9.226;2022-12-04T04:06:38;7.40;64.70
7254;DHT22;4060;49.186;9.226;2022-12-04T04:09:18;7.40;64.80
7254;DHT22;4060;49.186;9.226;2022-12-04T04:11:56;7.40;64.80
7254;DHT22;4060;49.186;9.226;2022-12-04T04:14:31;7.40;64.80
7254;DHT22;4060;49.186;9.226;2022-12-04T04:17:26;7.40;64.80
7254;DHT22;4060;49.186;9.226;2022-12-04T04:20:16;7.50;64.80
7254;DHT22;4060;49.186;9.226;2022-12-04T04:23:04;7.40;64.80
7254;DHT22;4060;49.186;9.226;2022-12-04T04:25:52;7.40;64.80
7254;DHT22;4060;49.186;9.226;2022-12-04T04:28:31;7.40;64.80
7254;DHT22;4060;49.186;9.226;2022-12-04T04:31:12;7.40;64.80
7254;DHT22;4060;49.186;9.226;2022-12-04T04:34:04;7.40;64.80
7254;DHT22;4060;49.186;9.226;2022-12-04T04:36:44;7.40;64.90
7254;DHT22;4060;49.186;9.226;2022-12-04T04:39:28;7.40;64.80
7254;DHT22;4060;49.186;9.226;2022-12-04T04:42:05;7.40;64.80
7254;DHT22;4060;49.186;9.226;2022-12-04T04:44:43;7.40;64.90
7254;DHT22;4060;49.186;9.226;2022-12-04T04:47:17;7.40;64.90
7254;DHT22;4060;49.186;9.226;2022-12-04T04:49:52;7.40;64.80
7254;DHT22;4060;49.186;9.226;2022-12-04T04:52:23;7.40;64.90
7254;DHT22;4060;49.186;9.226;2022-12-04T04:54:53;7.40;64.90
7254;DHT22;4060;49.186;9.226;2022-12-04T04:57:28;7.40;64.90
7254;DHT22;4060;49.186;9.226;2022-12-04T04:59:58;7.40;64.90
7254;DHT22;4060;49.186;9.226;2022-12-04T05:02:28;7.50;65.00
7254;DHT22;4060;49.186;9.226;2022-12-04T05:04:59;7.40;64.90
7254;DHT22;4060;49.186;9.226;2022-12-04T05:07:29;7.40;64.90
7254;DHT22;4060;49.186;9.226;2022-12-04T05:09:58;7.40;64.90
7254;DHT22;4060;49.186;9.226;2022-12-04T05:12:28;7.40;64.90
7254;DHT22;4060;49.186;9.226;2022-12-04T05:14:58;7.40;65.00
7254;DHT22;4060;49.186;9.226;2022-12-04T05:17:27;7.40;64.90
7254;DHT22;4060;49.186;9.226;2022-12-04T05:19:58;7.40;64.90
7254;DHT22;4060;49.186;9.226;2022-12-04T05:22:30;7.40;64.90
7254;DHT22;4060;49.186;9.226;2022-12-04T05:25:00;7.50;65.00
7254;DHT22;4060;49.186;9.226;2022-12-04T05:27:41;7.40;64.90
7254;DHT22;4060;49.186;9.226;2022-12-04T05:30:13;7.40;65.00
7254;DHT22;4060;49.186;9.226;2022-12-04T05:32:43;7.40;65.00
7254;DHT22;4060;49.186;9.226;2022-12-04T05:35:15;7.40;64.90
7254;DHT22;4060;49.186;9.226;2022-12-04T05:37:48;7.40;64.90
7254;DHT22;4060;49.186;9.226;2022-12-04T05:40:28;7.40;65.00
7254;DHT22;4060;49.186;9.226;2022-12-04T05:43:05;7.40;65.10
7254;DHT22;4060;49.186;9.226;2022-12-04T05:45:37;7.60;65.20
7254;DHT22;4060;49.186;9.226;2022-12-04T05:48:07;7.40;64.90
7254;DHT22;4060;49.186;9.226;2022-12-04T05:50:38;7.40;64.90
7254;DHT22;4060;49.186;9.226;2022-12-04T05:53:07;7.50;65.00
7254;DHT22;4060;49.186;9.226;2022-12-04T05:55:38;7.50;65.10
7254;DHT22;4060;49.186;9.226;2022-12-04T05:58:20;7.40;65.00
7254;DHT22;4060;49.186;9.226;2022-12-04T06:00:56;7.40;65.00
7254;DHT22;4060;49.186;9.226;2022-12-04T06:03:34;7.40;65.20
7254;DHT22;4060;49.186;9.226;2022-12-04T06:06:13;7.40;65.00
7254;DHT22;4060;49.186;9.226;2022-12-04T06:08:44;7.40;65.00
7254;DHT22;4060;49.186;9.226;2022-12-04T06:11:26;7.40;64.90
7254;DHT22;4060;49.186;9.226;2022-12-04T06:13:59;7.40;65.10
7254;DHT22;4060;49.186;9.226;2022-12-04T06:16:30;7.40;64.90
7254;DHT22;4060;49.186;9.226;2022-12-04T06:19:02;7.40;65.00
7254;DHT22;4060;49.186;9.226;2022-12-04T06:21:35;7.40;65.00
7254;DHT22;4060;49.186;9.226;2022-12-04T06:24:09;7.40;65.00
7254;DHT22;4060;49.186;9.226;2022-12-04T06:26:42;7.70;65.40
7254;DHT22;4060;49.186;9.226;2022-12-04T06:29:12;7.40;65.00
7254;DHT22;4060;49.186;9.226;2022-12-04T06:31:42;7.50;65.10
7254;DHT22;4060;49.186;9.226;2022-12-04T06:34:20;7.40;65.70
7254;DHT22;4060;49.186;9.226;2022-12-04T06:37:04;7.50;65.20
7254;DHT22;4060;49.186;9.226;2022-12-04T06:39:43;7.50;65.00
7254;DHT22;4060;49.186;9.226;2022-12-04T06:42:15;7.40;65.10
7254;DHT22;4060;49.186;9.226;2022-12-04T06:44:47;7.50;65.00
7254;DHT22;4060;49.186;9.226;2022-12-04T06:47:17;7.50;65.10
7254;DHT22;4060;49.186;9.226;2022-12-04T06:49:49;7.40;65.00
7254;DHT22;4060;49.186;9.226;2022-12-04T06:52:21;7.40;65.00
7254;DHT22;4060;49.186;9.226;2022-12-04T06:54:51;7.40;65.00
7254;DHT22;4060;49.186;9.226;2022-12-04T06:57:20;7.40;65.00
7254;DHT22;4060;49.186;9.226;2022-12-04T06:59:50;7.50;65.10
7254;DHT22;4060;49.186;9.226;2022-12-04T07:02:20;7.50;65.10
7254;DHT22;4060;49.186;9.226;2022-12-04T07:04:56;7.40;65.00
7254;DHT22;4060;49.186;9.226;2022-12-04T07:07:28;7.50;65.10
7254;DHT22;4060;49.186;9.226;2022-12-04T07:09:58;7.50;65.10
7254;DHT22;4060;49.186;9.226;2022-12-04T07:12:28;7.50;65.50
7254;DHT22;4060;49.186;9.226;2022-12-04T07:14:57;7.50;65.10
7254;DHT22;4060;49.186;9.226;2022-12-04T07:17:27;7.50;65.10
7254;DHT22;4060;49.186;9.226;2022-12-04T07:19:57;7.50;65.10
7254;DHT22;4060;49.186;9.226;2022-12-04T07:22:29;7.40;65.00
7254;DHT22;4060;49.186;9.226;2022-12-04T07:24:58;7.50;65.10
7254;DHT22;4060;49.186;9.226;2022-12-04T07:27:36;7.50;65.10
7254;DHT22;4060;49.186;9.226;2022-12-04T07:30:12;7.40;65.10
7254;DHT22;4060;49.186;9.226;2022-12-04T07:32:42;7.50;65.10
7254;DHT22;4060;49.186;9.226;2022-12-04T07:35:14;7.40;65.00
7254;DHT22;4060;49.186;9.226;2022-12-04T07:37:45;7.50;65.10
7254;DHT22;4060;49.186;9.226;2022-12-04T07:40:15;7.40;65.10
7254;DHT22;4060;49.186;9.226;2022-12-04T07:42:50;7.50;65.10
7254;DHT22;4060;49.186;9.226;2022-12-04T07:45:23;7.50;65.10
7254;DHT22;4060;49.186;9.226;2022-12-04T07:48:03;7.50;65.10
7254;DHT22;4060;49.186;9.226;2022-12-04T07:50:37;7.50;65.30
7254;DHT22;4060;49.186;9.226;2022-12-04T07:53:11;7.50;65.10
7254;DHT22;4060;49.186;9.226;2022-12-04T07:55:42;7.50;65.20
7254;DHT22;4060;49.186;9.226;2022-12-04T07:58:11;7.50;65.20
7254;DHT22;4060;49.186;9.226;2022-12-04T08:00:46;7.40;65.10
7254;DHT22;4060;49.186;9.226;2022-12-04T08:03:17;7.40;65.10
7254;DHT22;4060;49.186;9.226;2022-12-04T08:05:47;7.50;65.20
7254;DHT22;4060;49.186;9.226;2022-12-04T08:08:22;7.50;65.20
7254;DHT22;4060;49.186;9.226;2022-12-04T08:11:05;7.50;65.20
7254;DHT22;4060;49.186;9.226;2022-12-04T08:13:37;7.50;65.30
7254;DHT22;4060;49.186;9.226;2022-12-04T08:16:08;7.50;65.20
7254;DHT22;4060;49.186;9.226;2022-12-04T08:18:38;7.50;65.20
7254;DHT22;4060;49.186;9.226;2022-12-04T08:21:16;7.50;65.20
7254;DHT22;4060;49.186;9.226;2022-12-04T08:23:51;7.50;65.20
7254;DHT22;4060;49.186;9.226;2022-12-04T08:26:23;7.50;65.20
7254;DHT22;4060;49.186;9.226;2022-12-04T08:28:55;7.40;65.30
7254;DHT22;4060;49.186;9.226;2022-12-04T08:31:28;7.40;65.20
7254;DHT22;4060;49.186;9.226;2022-12-04T08:34:00;7.50;65.30
7254;DHT22;4060;49.186;9.226;2022-12-04T08:36:31;7.50;65.30
7254;DHT22;4060;49.186;9.226;2022-12-04T08:39:03;7.50;65.30
7254;DHT22;4060;49.186;9.226;2022-12-04T08:41:34;7.50;65.30
7254;DHT22;4060;49.186;9.226;2022-12-04T08:44:04;7.50;65.30
7254;DHT22;4060;49.186;9.226;2022-12-04T08:46:33;7.50;65.30
7254;DHT22;4060;49.186;9.226;2022-12-04T08:49:03;7.50;65.30
7254;DHT22;4060;49.186;9.226;2022-12-04T08:51:33;7.50;65.30
7254;DHT22;4060;49.186;9.226;2022-12-04T08:54:06;7.50;66.10
7254;DHT22;4060;49.186;9.226;2022-12-04T08:56:37;7.50;65.40
7254;DHT22;4060;49.186;9.226;2022-12-04T08:59:08;7.50;65.40
7254;DHT22;4060;49.186;9.226;2022-12-04T09:01:41;7.50;65.40
7254;DHT22;4060;49.186;9.226;2022-12-04T09:04:11;7.50;65.50
7254;DHT22;4060;49.186;9.226;2022-12-04T09:06:41;7.50;65.40
7254;DHT22;4060;49.186;9.226;2022-12-04T09:09:15;7.50;65.40
7254;DHT22;4060;49.186;9.226;2022-12-04T09:11:46;7.50;65.40
7254;DHT22;4060;49.186;9.226;2022-12-04T09:14:16;7.50;65.50
7254;DHT22;4060;49.186;9.226;2022-12-04T09:16:52;7.50;65.50
7254;DHT22;4060;49.186;9.226;2022-12-04T09:19:23;7.50;65.50
7254;DHT22;4060;49.186;9.226;2022-12-04T09:21:53;7.50;65.50
7254;DHT22;4060;49.186;9.226;2022-12-04T09:24:25;7.50;65.50
7254;DHT22;4060;49.186;9.226;2022-12-04T09:26:54;7.50;65.50
7254;DHT22;4060;49.186;9.226;2022-12-04T09:29:24;7.50;65.50
7254;DHT22;4060;49.186;9.226;2022-12-04T09:31:56;7.50;65.80
7254;DHT22;4060;49.186;9.226;2022-12-04T09:34:26;7.60;65.60
7254;DHT22;4060;49.186;9.226;2022-12-04T09:36:56;7.50;65.50
7254;DHT22;4060;49.186;9.226;2022-12-04T09:39:27;7.50;65.50
7254;DHT22;4060;49.186;9.226;2022-12-04T09:42:24;7.50;65.50
7254;DHT22;4060;49.186;9.226;2022-12-04T09:44:59;7.50;65.60
7254;DHT22;4060;49.186;9.226;2022-12-04T09:47:35;7.60;65.70
7254;DHT22;4060;49.186;9.226;2022-12-04T09:50:14;7.60;65.70
7254;DHT22;4060;49.186;9.226;2022-12-04T09:52:49;7.50;65.50
7254;DHT22;4060;49.186;9.226;2022-12-04T09:55:27;7.50;65.50
7254;DHT22;4060;49.186;9.226;2022-12-04T09:58:03;7.60;65.70
7254;DHT22;4060;49.186;9.226;2022-12-04T10:00:37;7.50;65.50
7254;DHT22;4060;49.186;9.226;2022-12-04T10:03:15;7.60;65.70
7254;DHT22;4060;49.186;9.226;2022-12-04T10:05:56;7.60;65.70
7254;DHT22;4060;49.186;9.226;2022-12-04T10:08:30;7.60;65.80
7254;DHT22;4060;49.186;9.226;2022-12-04T10:11:08;7.50;65.50
7254;DHT22;4060;49.186;9.226;2022-12-04T10:14:04;7.60;65.70
7254;DHT22;4060;49.186;9.226;2022-12-04T10:19:41;7.60;65.80
7254;DHT22;4060;49.186;9.226;2022-12-04T10:22:21;7.60;65.80
7254;DHT22;4060;49.186;9.226;2022-12-04T10:24:53;7.60;65.80
7254;DHT22;4060;49.186;9.226;2022-12-04T10:27:29;7.60;65.80
7254;DHT22;4060;49.186;9.226;2022-12-04T10:30:02;7.60;65.70
7254;DHT22;4060;49.186;9.226;2022-12-04T10:32:33;7.60;65.80
7254;DHT22;4060;49.186;9.226;2022-12-04T10:35:14;7.60;65.80
7254;DHT22;4060;49.186;9.226;2022-12-04T10:37:54;7.60;65.80
7254;DHT22;4060;49.186;9.226;2022-12-04T10:40:31;7.60;65.80
7254;DHT22;4060;49.186;9.226;2022-12-04T10:43:12;7.60;65.90
7254;DHT22;4060;49.186;9.226;2022-12-04T10:45:43;7.60;65.80
7254;DHT22;4060;49.186;9.226;2022-12-04T10:48:20;7.60;65.80
7254;DHT22;4060;49.186;9.226;2022-12-04T10:50:52;7.60;65.90
7254;DHT22;4060;49.186;9.226;2022-12-04T10:53:29;7.60;65.80
7254;DHT22;4060;49.186;9.226;2022-12-04T10:56:10;7.60;65.90
7254;DHT22;4060;49.186;9.226;2022-12-04T10:58:42;7.60;65.90
7254;DHT22;4060;49.186;9.226;2022-12-04T11:01:14;7.60;66.00
7254;DHT22;4060;49.186;9.226;2022-12-04T11:03:44;7.60;66.00
7254;DHT22;4060;49.186;9.226;2022-12-04T11:06:15;7.60;66.00
7254;DHT22;4060;49.186;9.226;2022-12-04T11:08:54;7.60;66.00
7254;DHT22;4060;49.186;9.226;2022-12-04T11:11:26;7.60;66.00
7254;DHT22;4060;49.186;9.226;2022-12-04T11:14:06;7.60;66.10
7254;DHT22;4060;49.186;9.226;2022-12-04T11:16:43;7.60;66.10
7254;DHT22;4060;49.186;9.226;2022-12-04T11:19:23;7.60;66.10
7254;DHT22;4060;49.186;9.226;2022-12-04T11:21:55;7.60;66.10
7254;DHT22;4060;49.186;9.226;2022-12-04T11:24:29;7.60;66.10
7254;DHT22;4060;49.186;9.226;2022-12-04T11:27:02;7.60;66.20
7254;DHT22;4060;49.186;9.226;2022-12-04T11:29:37;7.70;66.20
7254;DHT22;4060;49.186;9.226;2022-12-04T11:32:18;7.60;66.10
7254;DHT22;4060;49.186;9.226;2022-12-04T11:34:50;7.60;66.10
7254;DHT22;4060;49.186;9.226;2022-12-04T11:37:23;7.60;66.10
7254;DHT22;4060;49.186;9.226;2022-12-04T11:39:54;7.70;66.20
7254;DHT22;4060;49.186;9.226;2022-12-04T11:42:27;7.70;66.20
7254;DHT22;4060;49.186;9.226;2022-12-04T11:45:00;7.70;66.10
7254;DHT22;4060;49.186;9.226;2022-12-04T11:47:32;7.70;66.20
7254;DHT22;4060;49.186;9.226;2022-12-04T11:50:13;7.70;66.30
7254;DHT22;4060;49.186;9.226;2022-12-04T11:52:51;7.70;66.20
7254;DHT22;4060;49.186;9.226;2022-12-04T11:55:31;7.70;66.20
7254;DHT22;4060;49.186;9.226;2022-12-04T11:58:34;7.70;66.30
7254;DHT22;4060;49.186;9.226;2022-12-04T12:01:22;7.70;66.30
7254;DHT22;4060;49.186;9.226;2022-12-04T12:04:25;7.70;66.30
7254;DHT22;4060;49.186;9.226;2022-12-04T12:07:10;7.70;66.30
7254;DHT22;4060;49.186;9.226;2022-12-04T12:09:50;7.70;66.30
7254;DHT22;4060;49.186;9.226;2022-12-04T12:12:30;7.70;66.40
7254;DHT22;4060;49.186;9.226;2022-12-04T12:15:11;7.70;66.40
7254;DHT22;4060;49.186;9.226;2022-12-04T12:17:53;7.70;66.50
7254;DHT22;4060;49.186;9.226;2022-12-04T12:20:32;7.70;66.60
7254;DHT22;4060;49.186;9.226;2022-12-04T12:23:22;7.70;66.70
7254;DHT22;4060;49.186;9.226;2022-12-04T12:25:58;7.70;66.30
7254;DHT22;4060;49.186;9.226;2022-12-04T12:28:59;7.70;66.80
7254;DHT22;4060;49.186;9.226;2022-12-04T12:31:52;7.80;66.90
7254;DHT22;4060;49.186;9.226;2022-12-04T12:34:31;7.80;67.00
7254;DHT22;4060;49.186;9.226;2022-12-04T12:37:13;7.70;66.90
7254;DHT22;4060;49.186;9.226;2022-12-04T12:39:49;7.80;67.10
7254;DHT22;4060;49.186;9.226;2022-12-04T12:42:25;7.80;67.00
7254;DHT22;4060;49.186;9.226;2022-12-04T12:45:03;7.80;67.10
7254;DHT22;4060;49.186;9.226;2022-12-04T12:47:40;7.80;67.00
7254;DHT22;4060;49.186;9.226;2022-12-04T12:50:17;7.80;67.10
7254;DHT22;4060;49.186;9.226;2022-12-04T12:52:55;7.80;67.00
7254;DHT22;4060;49.186;9.226;2022-12-04T12:55:29;7.80;67.10
7254;DHT22;4060;49.186;9.226;2022-12-04T12:58:16;7.80;67.10
7254;DHT22;4060;49.186;9.226;2022-12-04T13:00:56;7.80;67.20
7254;DHT22;4060;49.186;9.226;2022-12-04T13:03:39;7.80;67.10
7254;DHT22;4060;49.186;9.226;2022-12-04T13:06:19;7.80;67.20
7254;DHT22;4060;49.186;9.226;2022-12-04T13:09:01;7.80;67.20
7254;DHT22;4060;49.186;9.226;2022-12-04T13:11:32;7.80;67.10
7254;DHT22;4060;49.186;9.226;2022-12-04T13:14:04;7.80;67.20
7254;DHT22;4060;49.186;9.226;2022-12-04T13:16:39;7.80;67.20
7254;DHT22;4060;49.186;9.226;2022-12-04T13:19:15;7.80;67.20
7254;DHT22;4060;49.186;9.226;2022-12-04T13:21:55;7.80;67.20
7254;DHT22;4060;49.186;9.226;2022-12-04T13:24:49;7.80;67.30
7254;DHT22;4060;49.186;9.226;2022-12-04T13:27:39;7.80;67.40
7254;DHT22;4060;49.186;9.226;2022-12-04T13:30:16;7.80;67.30
7254;DHT22;4060;49.186;9.226;2022-12-04T13:33:28;7.80;67.30
7254;DHT22;4060;49.186;9.226;2022-12-04T13:36:17;7.80;67.30
7254;DHT22;4060;49.186;9.226;2022-12-04T13:39:17;7.80;67.40
7254;DHT22;4060;49.186;9.226;2022-12-04T13:41:57;7.80;67.30
7254;DHT22;4060;49.186;9.226;2022-12-04T13:44:28;7.80;67.30
7254;DHT22;4060;49.186;9.226;2022-12-04T13:47:01;7.80;67.40
7254;DHT22;4060;49.186;9.226;2022-12-04T13:49:32;7.90;67.50
7254;DHT22;4060;49.186;9.226;2022-12-04T13:52:05;7.90;67.50
7254;DHT22;4060;49.186;9.226;2022-12-04T13:54:38;7.80;67.40
7254;DHT22;4060;49.186;9.226;2022-12-04T13:57:25;7.90;67.40
7254;DHT22;4060;49.186;9.226;2022-12-04T14:00:19;7.90;67.50
7254;DHT22;4060;49.186;9.226;2022-12-04T14:02:54;7.80;67.40
7254;DHT22;4060;49.186;9.226;2022-12-04T14:05:30;7.90;67.40
7254;DHT22;4060;49.186;9.226;2022-12-04T14:08:04;7.90;67.40
7254;DHT22;4060;49.186;9.226;2022-12-04T14:10:36;7.90;67.40
7254;DHT22;4060;49.186;9.226;2022-12-04T14:13:17;7.90;67.40
7254;DHT22;4060;49.186;9.226;2022-12-04T14:15:59;7.90;67.50
7254;DHT22;4060;49.186;9.226;2022-12-04T14:18:31;7.90;67.50
7254;DHT22;4060;49.186;9.226;2022-12-04T14:21:04;7.90;67.50
7254;DHT22;4060;49.186;9.226;2022-12-04T14:23:35;7.90;67.50
7254;DHT22;4060;49.186;9.226;2022-12-04T14:26:20;7.90;67.50
7254;DHT22;4060;49.186;9.226;2022-12-04T14:28:50;7.90;67.60
7254;DHT22;4060;49.186;9.226;2022-12-04T14:31:34;7.90;67.50
7254;DHT22;4060;49.186;9.226;2022-12-04T14:34:18;7.90;67.70
7254;DHT22;4060;49.186;9.226;2022-12-04T14:36:50;7.90;67.60
7254;DHT22;4060;49.186;9.226;2022-12-04T14:39:27;7.90;67.70
7254;DHT22;4060;49.186;9.226;2022-12-04T14:42:14;7.90;67.70
7254;DHT22;4060;49.186;9.226;2022-12-04T14:44:49;7.90;67.70
7254;DHT22;4060;49.186;9.226;2022-12-04T14:47:30;7.90;67.80
7254;DHT22;4060;49.186;9.226;2022-12-04T14:50:28;7.90;67.80
7254;DHT22;4060;49.186;9.226;2022-12-04T14:53:05;7.90;67.90
7254;DHT22;4060;49.186;9.226;2022-12-04T14:55:49;8.00;68.00
7254;DHT22;4060;49.186;9.226;2022-12-04T14:58:23;7.90;67.90
7254;DHT22;4060;49.186;9.226;2022-12-04T15:01:04;7.90;67.90
7254;DHT22;4060;49.186;9.226;2022-12-04T15:03:39;7.90;67.80
7254;DHT22;4060;49.186;9.226;2022-12-04T15:06:16;7.90;67.90
7254;DHT22;4060;49.186;9.226;2022-12-04T15:08:53;7.90;68.00
7254;DHT22;4060;49.186;9.226;2022-12-04T15:11:45;7.90;67.90
7254;DHT22;4060;49.186;9.226;2022-12-04T15:14:39;7.90;67.90
7254;DHT22;4060;49.186;9.226;2022-12-04T15:17:10;7.90;68.00
7254;DHT22;4060;49.186;9.226;2022-12-04T15:19:41;7.90;67.90
7254;DHT22;4060;49.186;9.226;2022-12-04T15:22:17;7.90;67.90
7254;DHT22;4060;49.186;9.226;2022-12-04T15:24:51;8.00;68.00
7254;DHT22;4060;49.186;9.226;2022-12-04T15:27:22;8.00;68.20
7254;DHT22;4060;49.186;9.226;2022-12-04T15:29:57;8.00;68.00
7254;DHT22;4060;49.186;9.226;2022-12-04T15:32:27;8.00;68.00
7254;DHT22;4060;49.186;9.226;2022-12-04T15:34:59;8.00;68.00
7254;DHT22;4060;49.186;9.226;2022-12-04T15:37:32;8.00;68.00
7254;DHT22;4060;49.186;9.226;2022-12-04T15:40:10;8.00;68.00
7254;DHT22;4060;49.186;9.226;2022-12-04T15:42:42;8.00;68.10
7254;DHT22;4060;49.186;9.226;2022-12-04T15:45:28;8.00;68.00
7254;DHT22;4060;49.186;9.226;2022-12-04T15:48:01;8.00;68.10
7254;DHT22;4060;49.186;9.226;2022-12-04T15:50:31;8.00;68.00
7254;DHT22;4060;49.186;9.226;2022-12-04T15:53:07;8.00;68.10
7254;DHT22;4060;49.186;9.226;2022-12-04T15:55:48;8.00;68.10
7254;DHT22;4060;49.186;9.226;2022-12-04T15:58:21;8.00;68.10
7254;DHT22;4060;49.186;9.226;2022-12-04T16:01:02;8.00;68.10
7254;DHT22;4060;49.186;9.226;2022-12-04T16:03:38;8.00;68.10
7254;DHT22;4060;49.186;9.226;2022-12-04T16:06:18;8.00;68.20
7254;DHT22;4060;49.186;9.226;2022-12-04T16:08:50;8.00;68.20
7254;DHT22;4060;49.186;9.226;2022-12-04T16:11:31;8.00;68.10
7254;DHT22;4060;49.186;9.226;2022-12-04T16:14:18;8.00;68.20
7254;DHT22;4060;49.186;9.226;2022-12-04T16:16:57;8.00;68.60
7254;DHT22;4060;49.186;9.226;2022-12-04T16:19:32;8.00;69.10
7254;DHT22;4060;49.186;9.226;2022-12-04T16:22:09;8.00;69.60
7254;DHT22;4060;49.186;9.226;2022-12-04T16:24:44;8.00;70.00
7254;DHT22;4060;49.186;9.226;2022-12-04T16:27:19;8.00;70.20
7254;DHT22;4060;49.186;9.226;2022-12-04T16:29:51;8.00;70.60
7254;DHT22;4060;49.186;9.226;2022-12-04T16:32:31;8.00;70.80
7254;DHT22;4060;49.186;9.226;2022-12-04T16:35:09;8.10;71.30
7254;DHT22;4060;49.186;9.226;2022-12-04T16:37:50;8.00;71.30
7254;DHT22;4060;49.186;9.226;2022-12-04T16:40:26;8.00;71.30
7254;DHT22;4060;49.186;9.226;2022-12-04T16:42:57;8.10;71.50
7254;DHT22;4060;49.186;9.226;2022-12-04T16:45:35;8.00;71.30
7254;DHT22;4060;49.186;9.226;2022-12-04T16:48:16;8.10;71.40
7254;DHT22;4060;49.186;9.226;2022-12-04T16:51:00;8.00;71.20
7254;DHT22;4060;49.186;9.226;2022-12-04T16:53:33;8.00;71.10
7254;DHT22;4060;49.186;9.226;2022-12-04T16:56:05;8.00;71.00
7254;DHT22;4060;49.186;9.226;2022-12-04T16:58:39;8.10;71.10
7254;DHT22;4060;49.186;9.226;2022-12-04T17:01:21;8.10;71.00
7254;DHT22;4060;49.186;9.226;2022-12-04T17:03:59;8.10;71.00
7254;DHT22;4060;49.186;9.226;2022-12-04T17:06:30;8.10;70.90
7254;DHT22;4060;49.186;9.226;2022-12-04T17:09:08;8.10;70.90
7254;DHT22;4060;49.186;9.226;2022-12-04T17:11:44;8.10;70.90
7254;DHT22;4060;49.186;9.226;2022-12-04T17:14:18;8.10;70.80
7254;DHT22;4060;49.186;9.226;2022-12-04T17:16:53;8.10;70.80